KOOA/OOA METAR and TAF weather

Enter ICAO airport designator
Station Type Date Time Source
KOOA METAR 2022/07/03 15:15 UTC NOAA

KOOA 031515Z AUTO 15006KT 10SM CLR 27/21 A3011 RMK AO2 T02650210


Station Type Date Time Source
KOOA Decoded METAR 2022/07/03 15:15 UTC NOAA

Oskaloosa, Oskaloosa Municipal Airport, IA, United States (KOOA) 41-13-34N 092-29-37W
Jul 03, 2022 - 11:15 AM EDT / 2022.07.03 1515 UTC
Wind: from the SSE (150 degrees) at 7 MPH (6 KT):0
Visibility: 10 mile(s):0
Sky conditions: clear
Temperature: 79.7 F (26.5 C)
Dew Point: 69.8 F (21.0 C)
Relative Humidity: 71%
Pressure (altimeter): 30.11 in. Hg (1019 hPa)
ob: KOOA 031515Z AUTO 15006KT 10SM CLR 27/21 A3011 RMK AO2 T02650210
cycle: 15

Station Type Date Time Source
KOOA TAF UTC NOAA

Error!

Example: see airport list